Time;durP1;ratioP1;P1;durP2;ratioP2;P2;SDS_P1;SDS_P2;PMS_P1;PMS_P2;Temp;Humidity;BMP_temperature;BMP_pressure;BME280_temperature;BME280_humidity;BME280_pressure;Samples;Min_cycle;Max_cycle;Signal;HPM_P1;HPM_P2
2021/10/09 00:00:48;;;;;;;73.35;35.70;;;;;;;13.01;58.47;96169.97;4964579;28;20036;-74
2021/10/09 00:03:14;;;;;;;73.18;36.90;;;;;;;12.68;59.63;96157.69;4949136;28;20039;-75
2021/10/09 00:05:39;;;;;;;77.60;38.97;;;;;;;13.00;58.47;96151.56;4959916;28;20018;-73
2021/10/09 00:08:11;;;;;;;69.43;35.92;;;;;;;13.26;57.64;96157.28;4953799;28;20381;-73
2021/10/09 00:10:38;;;;;;;;;;;;;;;13.42;57.42;96163.91;4950157;28;20489;-72
2021/10/09 00:13:03;;;;;;;76.32;37.10;;;;;;;13.25;58.26;96163.69;4949755;28;19927;-73
2021/10/09 00:15:28;;;;;;;82.18;40.03;;;;;;;13.06;57.71;96126.34;4949796;28;20159;-73
2021/10/09 00:17:54;;;;;;;80.10;39.65;;;;;;;13.04;58.44;96157.09;4949743;28;20126;-74
2021/10/09 00:20:19;;;;;;;66.88;36.22;;;;;;;13.45;57.06;96138.47;4960807;28;20023;-75
2021/10/09 00:22:45;;;;;;;66.75;35.70;;;;;;;13.14;58.20;96141.69;4977783;28;20493;-73
2021/10/09 00:25:10;;;;;;;76.63;36.97;;;;;;;13.11;58.25;96152.19;4949922;28;20115;-73
2021/10/09 00:27:36;;;;;;;73.65;35.47;;;;;;;12.90;59.01;96154.41;4949844;28;20039;-73
2021/10/09 00:30:04;;;;;;;65.07;35.60;;;;;;;13.23;58.25;96152.50;4948035;28;20035;-74
2021/10/09 00:32:29;;;;;;;65.18;34.92;;;;;;;12.96;58.85;96135.34;4949755;29;20433;-73
2021/10/09 00:34:54;;;;;;;64.70;35.70;;;;;;;13.02;58.38;96142.16;4949442;28;20173;-73
2021/10/09 00:37:20;;;;;;;54.03;31.30;;;;;;;13.22;57.81;96148.25;4949378;28;20039;-76
2021/10/09 00:39:45;;;;;;;62.70;34.67;;;;;;;13.49;57.20;96148.25;4953901;28;20046;-74
2021/10/09 00:42:11;;;;;;;61.28;35.08;;;;;;;13.45;57.28;96138.47;4930510;28;20131;-74
2021/10/09 00:44:40;;;;;;;65.53;34.13;;;;;;;13.55;56.75;96148.94;4928768;28;20367;-76
2021/10/09 00:47:05;;;;;;;65.47;33.20;;;;;;;13.48;57.15;96146.69;4932107;29;20024;-75
2021/10/09 00:49:32;;;;;;;63.33;34.80;;;;;;;13.30;57.74;96155.56;4951547;28;20036;-75
2021/10/09 00:52:01;;;;;;;57.22;33.22;;;;;;;13.18;57.74;96136.53;4945941;28;20171;-75
2021/10/09 00:54:27;;;;;;;68.10;34.97;;;;;;;13.33;57.43;96155.00;4944527;28;20488;-73
2021/10/09 00:56:56;;;;;;;62.50;34.58;;;;;;;13.37;57.25;96147.97;4968936;28;20054;-75
2021/10/09 00:59:25;;;;;;;65.78;33.78;;;;;;;13.30;57.61;96152.13;4969004;28;20034;-74
2021/10/09 01:01:51;;;;;;;58.20;33.53;;;;;;;13.31;57.51;96149.16;4968148;28;20050;-73
2021/10/09 01:04:18;;;;;;;54.60;31.80;;;;;;;12.92;58.19;96152.25;4946595;28;20047;-76
2021/10/09 01:06:44;;;;;;;65.55;35.05;;;;;;;13.21;57.34;96147.47;4947592;28;20186;-74
2021/10/09 01:09:10;;;;;;;61.30;33.88;;;;;;;12.88;58.91;96151.22;4944341;28;20110;-74
2021/10/09 01:11:35;;;;;;;68.03;36.75;;;;;;;12.89;58.79;96140.25;4944547;28;20032;-73
2021/10/09 01:14:00;;;;;;;60.85;32.67;;;;;;;12.81;58.24;96122.25;4931917;29;20030;-74
2021/10/09 01:16:28;;;;;;;64.00;34.85;;;;;;;12.65;59.46;96145.75;4943931;28;20059;-73
2021/10/09 01:18:55;;;;;;;63.10;33.88;;;;;;;12.89;58.34;96145.59;4936310;28;20036;-74
2021/10/09 01:21:22;;;;;;;59.88;34.85;;;;;;;12.95;58.22;96152.44;4936177;28;20434;-73
2021/10/09 01:23:48;;;;;;;56.00;31.42;;;;;;;12.62;59.32;96137.53;4963713;28;20079;-75
2021/10/09 01:26:14;;;;;;;64.30;34.35;;;;;;;12.73;59.29;96158.41;4949652;28;20043;-74
2021/10/09 01:28:44;;;;;;;72.55;37.67;;;;;;;12.70;58.94;96137.66;4948819;28;20036;-73
2021/10/09 01:31:10;;;;;;;65.25;36.30;;;;;;;12.76;58.84;96141.03;4949382;28;20051;-73
2021/10/09 01:33:35;;;;;;;68.07;34.92;;;;;;;13.08;58.02;96145.53;4949984;28;20039;-73
2021/10/09 01:36:01;;;;;;;73.95;37.80;;;;;;;12.74;58.83;96140.50;4960260;28;20123;-73
2021/10/09 01:38:27;;;;;;;66.53;34.92;;;;;;;12.87;58.37;96145.09;4954349;28;20035;-74
2021/10/09 01:40:53;;;;;;;76.93;36.13;;;;;;;12.89;58.46;96134.91;4952869;28;20035;-74
2021/10/09 01:43:20;;;;;;;78.32;39.10;;;;;;;12.78;58.69;96143.41;4952404;28;20032;-73
2021/10/09 01:45:46;;;;;;;69.22;37.33;;;;;;;13.01;58.29;96129.91;4952662;28;20039;-75
2021/10/09 01:48:13;;;;;;;75.38;39.75;;;;;;;12.61;59.23;96135.94;4950930;28;20452;-74
2021/10/09 01:50:39;;;;;;;66.70;35.95;;;;;;;12.97;58.38;96131.56;4951975;28;20117;-73
2021/10/09 01:53:07;;;;;;;85.82;41.05;;;;;;;12.86;58.91;96135.50;4968956;28;20480;-73
2021/10/09 01:55:34;;;;;;;65.70;37.45;;;;;;;12.95;58.65;96133.75;4967718;28;20129;-73
2021/10/09 01:57:59;;;;;;;92.05;42.70;;;;;;;12.85;58.70;96123.25;4971748;28;20109;-73
2021/10/09 02:00:25;;;;;;;85.07;41.95;;;;;;;12.69;58.77;96121.91;4971243;28;20039;-74
2021/10/09 02:02:53;;;;;;;75.20;40.72;;;;;;;12.67;59.39;96129.44;4969275;28;20448;-74
2021/10/09 02:05:19;;;;;;;72.15;39.30;;;;;;;12.98;58.26;96119.00;4962301;28;20031;-75
2021/10/09 02:07:44;;;;;;;78.78;40.92;;;;;;;12.70;58.95;96115.50;4934741;28;20103;-73
2021/10/09 02:10:14;;;;;;;76.88;40.85;;;;;;;12.77;59.34;96117.78;4958591;28;20042;-75
2021/10/09 02:12:39;;;;;;;74.65;39.00;;;;;;;12.98;58.78;96127.03;4971064;28;20046;-75
2021/10/09 02:15:15;;;;;;;95.70;43.47;;;;;;;12.91;58.99;96115.94;4971709;28;20027;-73
2021/10/09 02:25:48;;;;;;;92.97;44.10;;;;;;;12.58;59.98;96113.28;4969503;28;20053;-74
2021/10/09 02:28:23;;;;;;;105.45;47.13;;;;;;;12.70;60.28;96126.97;4971271;28;20050;-74
2021/10/09 02:30:51;;;;;;;93.35;45.08;;;;;;;12.96;59.27;96126.53;4970499;28;20485;-73
2021/10/09 02:33:17;;;;;;;77.43;41.33;;;;;;;12.97;59.33;96126.22;4966020;28;20047;-74
2021/10/09 02:35:42;;;;;;;98.78;46.40;;;;;;;13.12;58.83;96125.16;4952251;28;20410;-71
2021/10/09 02:38:09;;;;;;;83.03;42.65;;;;;;;13.19;59.00;96124.75;4953346;28;20023;-71
2021/10/09 02:40:37;;;;;;;75.88;43.10;;;;;;;13.21;58.86;96125.28;4934566;28;20032;-71
2021/10/09 02:43:03;;;;;;;73.20;41.90;;;;;;;13.05;59.21;96115.94;4944005;28;20130;-71
2021/10/09 02:45:29;;;;;;;70.90;37.45;;;;;;;13.13;58.52;96118.72;4943653;28;20234;-70
2021/10/09 02:47:59;;;;;;;76.47;39.65;;;;;;;13.38;58.24;96128.16;4931867;28;20024;-71
2021/10/09 02:50:24;;;;;;;77.72;40.45;;;;;;;13.53;57.75;96135.09;4943623;29;20622;-71
2021/10/09 02:52:50;;;;;;;76.25;39.67;;;;;;;13.66;57.02;96128.94;4936804;28;20027;-71
2021/10/09 02:55:18;;;;;;;81.93;41.75;;;;;;;13.69;56.79;96125.69;4945912;28;20047;-71
2021/10/09 02:57:44;;;;;;;79.47;40.22;;;;;;;13.40;57.36;96131.34;4950577;28;20039;-71
2021/10/09 03:00:10;;;;;;;82.47;42.35;;;;;;;13.45;57.39;96130.44;4949711;28;20031;-71
2021/10/09 03:02:36;;;;;;;106.03;48.53;;;;;;;13.35;57.35;96128.75;4950441;28;20023;-70
2021/10/09 03:05:05;;;;;;;100.20;47.38;;;;;;;13.48;56.98;96127.97;4959763;28;20469;-72
2021/10/09 03:07:31;;;;;;;82.03;42.40;;;;;;;13.35;57.10;96128.75;4943263;28;20064;-72
2021/10/09 03:09:57;;;;;;;100.78;46.90;;;;;;;12.63;58.74;96104.41;4950771;28;20416;-72
2021/10/09 03:12:23;;;;;;;87.32;43.88;;;;;;;13.05;57.51;96106.06;4951070;28;20047;-71
2021/10/09 03:14:48;;;;;;;91.03;43.92;;;;;;;13.19;57.22;96124.75;4950993;28;20062;-70
2021/10/09 03:17:13;;;;;;;96.00;46.38;;;;;;;13.00;57.91;96114.19;4953410;28;20027;-71
2021/10/09 03:19:39;;;;;;;92.38;47.63;;;;;;;13.11;57.76;96118.25;4957738;28;20039;-69
2021/10/09 03:22:04;;;;;;;96.00;44.58;;;;;;;12.85;58.14;96117.91;4958495;28;20074;-70
2021/10/09 03:24:30;;;;;;;103.50;47.65;;;;;;;13.30;57.19;96126.19;4950641;28;20682;-69
2021/10/09 03:26:55;;;;;;;97.90;45.50;;;;;;;13.19;57.10;96100.72;4950602;28;20506;-70
2021/10/09 03:29:20;;;;;;;91.80;45.75;;;;;;;13.17;57.49;96130.41;4952246;28;20031;-70
2021/10/09 03:31:46;;;;;;;108.65;49.40;;;;;;;13.14;57.38;96122.19;4950762;28;20097;-70
2021/10/09 03:34:11;;;;;;;112.32;51.33;;;;;;;13.11;57.41;96122.81;4950796;28;20031;-70
2021/10/09 03:36:37;;;;;;;115.72;51.42;;;;;;;13.07;57.47;96132.47;4957485;28;20032;-69
2021/10/09 03:39:07;;;;;;;98.22;48.42;;;;;;;12.85;57.79;96128.59;4949815;28;20753;-69
2021/10/09 03:41:32;;;;;;;107.95;48.75;;;;;;;13.01;57.20;96129.91;4950408;28;20105;-69
2021/10/09 03:43:58;;;;;;;108.80;48.70;;;;;;;12.80;57.47;96126.00;4951956;28;20110;-70
2021/10/09 03:46:26;;;;;;;97.00;47.67;;;;;;;13.07;57.15;96127.13;4950396;28;20565;-70
2021/10/09 03:54:01;;;;;;;111.43;50.25;;;;;;;12.89;57.23;96140.25;4950313;28;20050;-70
2021/10/09 03:56:26;;;;;;;134.68;55.72;;;;;;;12.75;57.63;96132.22;4951135;28;20078;-70
2021/10/09 03:58:52;;;;;;;105.95;49.35;;;;;;;12.88;57.38;96128.00;4949531;28;20094;-70
2021/10/09 04:01:17;;;;;;;114.00;49.97;;;;;;;12.99;56.71;96134.72;4949876;28;20170;-70
2021/10/09 04:03:43;;;;;;;104.55;48.88;;;;;;;12.62;57.74;96146.31;4948976;28;20516;-71
2021/10/09 04:06:08;;;;;;;128.43;52.05;;;;;;;12.98;56.86;96133.16;4956230;28;20035;-70
2021/10/09 04:08:33;;;;;;;116.97;52.10;;;;;;;12.91;56.80;96146.09;4949493;28;20019;-70
2021/10/09 04:10:59;;;;;;;123.93;53.90;;;;;;;12.65;57.55;96148.41;4966337;28;20023;-70
2021/10/09 04:13:24;;;;;;;118.28;50.92;;;;;;;12.78;57.26;96130.03;4949539;28;20048;-70
2021/10/09 04:15:49;;;;;;;126.00;53.47;;;;;;;12.78;57.13;96130.84;4949782;28;20047;-70
2021/10/09 04:18:15;;;;;;;114.72;50.35;;;;;;;12.77;57.35;96142.59;4949467;28;20039;-70
2021/10/09 04:20:41;;;;;;;117.95;52.00;;;;;;;12.71;57.16;96143.78;4956878;28;20023;-70
2021/10/09 04:23:06;;;;;;;130.63;55.80;;;;;;;12.60;57.40;96145.03;4957793;28;20051;-70
2021/10/09 04:25:31;;;;;;;126.72;55.85;;;;;;;12.60;57.57;96132.47;4948386;28;20122;-70
2021/10/09 04:27:57;;;;;;;115.40;51.50;;;;;;;12.47;57.89;96120.66;4949561;28;20632;-71
2021/10/09 04:30:22;;;;;;;114.75;50.67;;;;;;;12.49;58.19;96131.84;4949072;28;20177;-70
2021/10/09 04:32:48;;;;;;;121.53;54.13;;;;;;;12.67;57.22;96137.44;4964061;28;20027;-70
2021/10/09 04:35:13;;;;;;;132.50;54.05;;;;;;;12.61;57.32;96141.28;4958692;28;20034;-70
2021/10/09 04:37:39;;;;;;;108.03;49.67;;;;;;;12.80;57.10;96138.56;4949416;28;20035;-69
2021/10/09 04:40:05;;;;;;;127.63;55.85;;;;;;;12.63;57.38;96141.78;4948962;28;20405;-69
2021/10/09 04:42:31;;;;;;;122.25;52.83;;;;;;;12.55;57.95;96139.78;4949291;28;20044;-70
2021/10/09 04:44:56;;;;;;;112.57;51.33;;;;;;;12.36;58.36;96142.47;4949273;28;20043;-70
2021/10/09 04:47:22;;;;;;;124.75;53.70;;;;;;;12.73;58.14;96136.25;4951256;28;20083;-70
2021/10/09 04:49:47;;;;;;;121.03;54.45;;;;;;;13.06;57.37;96131.69;4954390;28;20147;-70
2021/10/09 04:52:14;;;;;;;113.53;52.90;;;;;;;13.20;57.25;96137.03;4958879;28;20038;-70
2021/10/09 04:54:40;;;;;;;103.45;50.80;;;;;;;12.97;57.88;96134.25;4955695;28;20035;-70
2021/10/09 04:57:05;;;;;;;93.57;47.15;;;;;;;13.56;57.03;96144.41;4949374;28;20039;-71
2021/10/09 04:59:31;;;;;;;122.25;53.30;;;;;;;13.56;56.24;96141.72;4950801;28;20110;-70
2021/10/09 05:01:56;;;;;;;86.13;46.10;;;;;;;13.71;55.92;96138.75;4949279;28;20055;-70
2021/10/09 05:04:21;;;;;;;82.32;45.72;;;;;;;13.79;55.31;96140.72;4965434;28;20042;-70
2021/10/09 05:06:47;;;;;;;95.50;49.00;;;;;;;13.33;56.21;96149.66;4959006;28;20531;-70
2021/10/09 05:09:12;;;;;;;79.53;44.55;;;;;;;13.72;55.58;96156.38;4954454;28;20460;-70
2021/10/09 05:11:37;;;;;;;88.82;46.78;;;;;;;13.25;55.70;96158.34;4952834;28;20035;-69
2021/10/09 05:14:03;;;;;;;84.07;48.08;;;;;;;13.30;56.47;96158.25;4954675;28;20027;-70
2021/10/09 05:16:28;;;;;;;81.93;46.63;;;;;;;13.00;56.95;96156.91;4952899;28;20528;-70
2021/10/09 05:18:54;;;;;;;71.53;45.15;;;;;;;13.23;56.24;96155.97;4950654;28;20039;-71
2021/10/09 05:21:19;;;;;;;86.53;47.65;;;;;;;13.29;56.11;96151.31;4967271;28;20035;-70
2021/10/09 05:23:44;;;;;;;71.82;41.78;;;;;;;13.10;56.12;96154.03;4952154;28;20033;-71
2021/10/09 05:26:10;;;;;;;79.43;42.83;;;;;;;13.15;55.96;96156.63;4954966;28;20055;-70
2021/10/09 05:28:44;;;;;;;71.53;42.25;;;;;;;13.27;55.56;96156.19;4967597;28;20036;-70
2021/10/09 05:31:12;;;;;;;83.55;44.83;;;;;;;13.15;56.09;96158.50;4967507;28;20038;-69
2021/10/09 05:33:42;;;;;;;70.97;41.65;;;;;;;13.24;55.47;96172.78;4951931;28;20054;-70
2021/10/09 05:36:07;;;;;;;74.50;42.33;;;;;;;13.26;55.88;96171.44;4957346;28;20047;-70
2021/10/09 05:38:34;;;;;;;65.18;42.30;;;;;;;13.75;54.55;96172.59;4974660;28;20035;-71
2021/10/09 05:40:59;;;;;;;69.70;41.53;;;;;;;13.60;54.53;96159.53;4952699;29;20043;-70
2021/10/09 05:43:25;;;;;;;69.15;41.10;;;;;;;13.93;53.87;96173.59;4952065;28;20097;-70
2021/10/09 05:45:51;;;;;;;60.70;37.88;;;;;;;13.66;54.17;96158.34;4952371;28;20055;-71
2021/10/09 05:48:16;;;;;;;61.13;38.88;;;;;;;13.94;53.53;96164.47;4952470;28;20040;-70
2021/10/09 06:00:05;;;;;;;62.80;38.70;;;;;;;13.79;53.66;96173.59;4951853;28;20050;-70
2021/10/09 06:02:04;;;;;;;68.75;40.85;;;;;;;13.70;54.10;96172.72;4951062;29;20047;-70
2021/10/09 07:00:51;;;;;;;48.00;31.60;;;;;;;15.70;48.20;96195.63;4951389;28;20094;-70
2021/10/09 07:03:18;;;;;;;49.47;31.88;;;;;;;15.69;47.73;96210.13;4951481;28;20055;-70
2021/10/09 07:05:44;;;;;;;52.13;32.85;;;;;;;14.49;50.75;96207.19;4955983;28;20369;-70
2021/10/09 07:08:09;;;;;;;50.25;32.45;;;;;;;14.70;49.87;96212.06;4963261;28;20082;-70
2021/10/09 07:10:41;;;;;;;48.63;32.42;;;;;;;14.48;50.13;96221.66;4950078;28;20031;-70
2021/10/09 07:13:10;;;;;;;48.20;32.85;;;;;;;14.23;51.22;96214.16;4950370;28;20564;-70
2021/10/09 07:15:36;;;;;;;52.38;34.03;;;;;;;14.40;50.77;96225.03;4949364;28;20040;-70
2021/10/09 07:18:03;;;;;;;50.03;33.00;;;;;;;14.06;51.81;96214.78;4950354;28;20047;-70
2021/10/09 07:20:29;;;;;;;51.95;33.85;;;;;;;14.05;51.58;96222.00;4954337;28;20043;-69
2021/10/09 07:22:54;;;;;;;56.28;33.85;;;;;;;13.99;51.78;96227.78;4954589;28;20509;-70
2021/10/09 07:25:20;;;;;;;52.47;34.13;;;;;;;14.32;51.93;96229.19;4965134;28;20071;-70
2021/10/09 07:27:46;;;;;;;57.30;35.92;;;;;;;14.08;52.24;96238.56;4949910;28;20047;-70
2021/10/09 07:30:12;;;;;;;59.22;35.58;;;;;;;14.15;51.69;96228.25;4949801;28;20629;-70
2021/10/09 07:32:37;;;;;;;56.53;35.33;;;;;;;14.01;52.27;96228.25;4950194;28;20074;-70
2021/10/09 07:35:03;;;;;;;60.22;35.70;;;;;;;14.59;50.83;96235.63;4950404;29;20039;-71
2021/10/09 07:37:28;;;;;;;61.53;33.75;;;;;;;14.99;49.78;96225.03;4950217;28;20531;-70
2021/10/09 07:39:54;;;;;;;51.28;34.42;;;;;;;15.03;49.48;96226.78;4950132;28;20401;-70
2021/10/09 07:42:19;;;;;;;50.95;33.80;;;;;;;15.18;49.12;96228.31;4944668;28;20457;-70
2021/10/09 07:44:45;;;;;;;45.33;32.80;;;;;;;14.81;49.39;96213.41;4930983;28;20118;-68
2021/10/09 07:47:13;;;;;;;39.78;29.25;;;;;;;15.54;48.53;96224.72;4934778;29;20062;-69
2021/10/09 07:49:39;;;;;;;49.83;33.38;;;;;;;15.64;48.06;96229.84;4930356;28;20043;-70
2021/10/09 07:52:05;;;;;;;49.05;32.45;;;;;;;14.91;49.17;96253.34;4939881;28;20031;-84
2021/10/09 07:54:30;;;;;;;50.33;34.45;;;;;;;14.91;49.30;96229.25;4923136;28;20046;-68
2021/10/09 07:56:56;;;;;;;45.35;31.55;;;;;;;14.72;49.37;96253.50;4968274;28;20113;-70
2021/10/09 07:59:21;;;;;;;48.50;33.33;;;;;;;15.18;49.07;96244.38;4971119;28;20042;-71
2021/10/09 08:01:47;;;;;;;49.78;31.95;;;;;;;15.52;48.11;96249.16;4966530;28;20047;-73
2021/10/09 08:04:15;;;;;;;45.03;30.05;;;;;;;15.93;47.55;96247.31;4969147;28;20041;-74
2021/10/09 08:06:41;;;;;;;47.85;31.88;;;;;;;15.37;47.78;96246.09;4939710;28;20039;-80
2021/10/09 08:09:16;;;;;;;49.72;32.53;;;;;;;15.38;47.84;96227.00;4948619;28;20039;-78
2021/10/09 08:11:41;;;;;;;47.45;31.00;;;;;;;15.54;46.90;96214.00;4948925;28;20562;-74
2021/10/09 08:14:07;;;;;;;45.72;31.52;;;;;;;15.99;47.51;96251.44;4950110;29;20020;-72
2021/10/09 08:16:33;;;;;;;49.20;31.10;;;;;;;15.41;47.21;96242.50;4965980;28;20049;-76
2021/10/09 08:19:00;;;;;;;50.85;32.42;;;;;;;16.23;46.48;96254.50;4968378;28;20125;-68
2021/10/09 08:21:27;;;;;;;40.15;28.60;;;;;;;16.50;45.93;96250.75;4952599;28;20054;-73
2021/10/09 08:38:46;;;;;;;43.55;31.45;;;;;;;16.69;44.65;96241.63;4950936;28;20079;-76
2021/10/09 08:40:06;;;;;;;50.67;33.42;;;;;;;15.98;46.43;96249.88;4948715;28;20395;-73
2021/10/09 08:42:33;;;;;;;45.53;31.10;;;;;;;16.35;45.76;96268.09;4958362;28;20118;-70
2021/10/09 08:44:58;;;;;;;47.80;31.20;;;;;;;15.86;46.44;96270.00;4974755;28;20070;-74
2021/10/09 08:47:24;;;;;;;43.45;29.92;;;;;;;14.80;49.62;96268.09;4977568;28;20097;-73
2021/10/09 08:49:49;;;;;;;46.40;31.88;;;;;;;15.42;47.63;96265.50;4970195;28;20035;-72
2021/10/09 08:52:22;;;;;;;41.97;29.77;;;;;;;16.41;45.42;96266.06;4955842;28;20520;-75
2021/10/09 08:54:48;;;;;;;47.03;31.10;;;;;;;16.20;46.07;96257.81;4956068;28;20039;-69
2021/10/09 08:57:16;;;;;;;44.47;31.63;;;;;;;15.85;46.19;96265.75;4954552;28;20788;-78
2021/10/09 08:59:47;;;;;;;45.83;31.45;;;;;;;16.40;45.83;96256.44;4955146;28;20054;-73
2021/10/09 09:02:18;;;;;;;43.93;32.40;;;;;;;16.79;45.06;96269.00;4957637;28;20058;-68
2021/10/09 09:27:10;;;;;;;33.25;23.50;;;;;;;17.34;43.60;96259.44;4961791;28;20098;-70
2021/10/09 09:35:20;;;;;;;36.78;28.00;;;;;;;14.60;48.57;96268.53;4956260;28;20087;-78
2021/10/09 09:40:42;;;;;;;39.50;27.87;;;;;;;13.59;51.00;96283.59;4955450;28;20519;-75
2021/10/09 09:43:09;;;;;;;35.67;26.60;;;;;;;13.06;52.12;96275.94;4953933;28;20043;-69
2021/10/09 09:45:37;;;;;;;38.08;27.20;;;;;;;12.88;53.47;96276.72;4954475;28;20511;-69
2021/10/09 09:48:04;;;;;;;33.97;24.52;;;;;;;14.20;50.70;96276.31;4955549;28;20089;-69
2021/10/09 09:50:31;;;;;;;35.95;25.58;;;;;;;14.13;50.09;96275.94;4957231;28;20461;-69
2021/10/09 09:52:59;;;;;;;35.40;25.88;;;;;;;14.55;49.43;96272.91;4961976;28;20035;-69
2021/10/09 09:55:25;;;;;;;36.65;26.10;;;;;;;15.72;47.17;96272.00;4950163;28;20598;-69
2021/10/09 09:57:52;;;;;;;31.80;24.48;;;;;;;16.18;46.66;96267.28;4952266;28;20681;-69
2021/10/09 10:00:17;;;;;;;29.67;22.63;;;;;;;15.71;45.59;96266.94;4951490;28;20043;-67
2021/10/09 10:02:55;;;;;;;33.80;24.20;;;;;;;15.82;45.66;96276.31;4951986;28;20027;-68
2021/10/09 10:05:24;;;;;;;35.17;25.65;;;;;;;15.52;46.38;96269.84;4954273;28;20034;-68
2021/10/09 10:07:51;;;;;;;35.08;25.45;;;;;;;15.93;45.78;96272.25;4963105;28;20031;-69
2021/10/09 10:10:16;;;;;;;29.95;23.70;;;;;;;15.93;45.67;96266.09;4952923;28;20122;-68
2021/10/09 10:12:45;;;;;;;40.70;24.80;;;;;;;16.67;44.06;96262.63;4951706;28;20057;-66
2021/10/09 10:15:11;;;;;;;39.25;24.65;;;;;;;15.98;45.71;96268.66;4951796;28;20038;-68
2021/10/09 10:17:45;;;;;;;37.58;24.42;;;;;;;17.11;43.33;96272.28;4951779;28;20565;-68
2021/10/09 10:20:15;;;;;;;32.83;25.35;;;;;;;17.20;42.91;96259.63;4953541;28;20054;-68
2021/10/09 10:22:40;;;;;;;35.78;23.83;;;;;;;17.16;43.07;96261.38;4958026;28;20035;-67
2021/10/09 10:25:15;;;;;;;35.40;24.02;;;;;;;17.38;42.99;96261.19;4951483;28;20039;-67
2021/10/09 10:27:41;;;;;;;31.98;24.13;;;;;;;17.80;42.11;96257.91;4951528;28;20050;-67
2021/10/09 10:30:15;;;;;;;32.75;24.38;;;;;;;17.78;41.69;96255.56;4950989;28;20693;-67
2021/10/09 10:32:44;;;;;;;35.33;25.17;;;;;;;17.04;42.72;96259.31;4951168;28;20143;-67
2021/10/09 10:35:28;;;;;;;31.95;24.30;;;;;;;17.21;43.11;96260.44;4953592;28;20028;-69
2021/10/09 10:37:57;;;;;;;32.40;23.67;;;;;;;17.26;42.76;96254.88;4962496;28;20035;-69
2021/10/09 10:41:01;;;;;;;37.65;24.98;;;;;;;17.33;43.14;96263.25;4951349;28;20502;-69
2021/10/09 10:43:30;;;;;;;29.65;23.67;;;;;;;17.45;42.70;96267.97;4950760;28;20398;-69
2021/10/09 10:45:56;;;;;;;42.53;25.70;;;;;;;17.31;43.08;96249.34;4951433;28;20044;-72
2021/10/09 10:48:53;;;;;;;38.30;26.67;;;;;;;16.95;44.00;96261.25;4949554;28;20097;-70
2021/10/09 10:56:59;;;;;;;37.63;25.23;;;;;;;16.38;45.57;96255.97;4951117;28;20114;-69
2021/10/09 11:02:18;;;;;;;38.15;24.35;;;;;;;16.18;45.75;96253.88;4951248;28;20129;-69
2021/10/09 11:04:53;;;;;;;35.53;25.08;;;;;;;16.57;44.70;96237.63;4949395;28;20036;-71
2021/10/09 11:07:24;;;;;;;30.55;22.77;;;;;;;16.84;44.33;96243.88;4957364;28;20062;-68
2021/10/09 11:09:51;;;;;;;33.67;24.55;;;;;;;16.84;44.57;96243.88;4954044;28;20121;-69
2021/10/09 11:12:20;;;;;;;30.75;21.63;;;;;;;17.49;43.68;96256.25;4950631;28;20047;-69
2021/10/09 11:14:46;;;;;;;31.38;23.50;;;;;;;17.58;43.26;96248.94;4950489;28;20035;-69
2021/10/09 11:17:12;;;;;;;33.95;21.92;;;;;;;18.16;41.80;96244.75;4952738;28;20039;-68
2021/10/09 11:19:45;;;;;;;28.77;21.15;;;;;;;18.10;41.91;96248.75;4950180;28;20031;-68
2021/10/09 11:22:16;;;;;;;27.67;21.55;;;;;;;18.42;41.18;96233.81;4957866;28;20067;-69
2021/10/09 11:24:47;;;;;;;29.15;20.58;;;;;;;18.11;42.00;96242.25;4958065;28;20019;-68
2021/10/09 11:27:16;;;;;;;31.67;21.02;;;;;;;17.87;41.67;96242.06;4950410;28;20032;-68
2021/10/09 11:29:59;;;;;;;25.52;20.45;;;;;;;17.31;43.07;96243.97;4949863;28;20122;-68
2021/10/09 11:32:30;;;;;;;30.63;20.50;;;;;;;17.37;42.38;96237.31;4950993;29;20032;-68
2021/10/09 11:34:56;;;;;;;26.43;19.50;;;;;;;16.59;43.83;96234.66;4950067;28;20094;-68
2021/10/09 11:37:21;;;;;;;22.20;18.75;;;;;;;16.91;43.95;96230.72;4957875;28;20039;-71
2021/10/09 11:39:49;;;;;;;24.00;18.20;;;;;;;16.84;43.38;96239.28;4950142;28;20043;-70
2021/10/09 11:42:19;;;;;;;29.45;18.17;;;;;;;17.51;42.03;96223.66;4950082;28;20032;-70
2021/10/09 11:44:59;;;;;;;21.85;18.05;;;;;;;17.75;41.15;96231.19;4948465;28;20027;-70
2021/10/09 11:53:30;;;;;;;24.52;19.00;;;;;;;17.08;42.08;96232.59;4951722;29;20033;-70
2021/10/09 11:56:07;;;;;;;20.13;18.02;;;;;;;17.61;42.39;96228.69;4949922;28;20043;-70
2021/10/09 11:58:54;;;;;;;22.33;19.42;;;;;;;17.13;43.15;96230.53;4949779;28;20130;-70
2021/10/09 12:01:27;;;;;;;19.00;16.63;;;;;;;16.74;43.38;96233.44;4950144;28;20409;-70
2021/10/09 12:03:53;;;;;;;17.77;15.85;;;;;;;16.67;41.99;96233.06;4949452;28;20126;-72
2021/10/09 12:06:18;;;;;;;17.83;14.23;;;;;;;16.48;42.92;96234.19;4951972;28;20165;-72
2021/10/09 12:08:55;;;;;;;16.48;14.30;;;;;;;16.72;41.55;96198.00;4960042;28;20026;-73
2021/10/09 12:11:21;;;;;;;20.20;15.18;;;;;;;16.62;41.81;96240.16;4952902;28;20023;-66
2021/10/09 12:14:00;;;;;;;18.67;14.43;;;;;;;16.94;42.04;96232.78;4947452;28;20102;-68
2021/10/09 12:16:30;;;;;;;21.15;15.05;;;;;;;17.34;40.86;96229.84;4949816;28;20069;-68
2021/10/09 12:19:00;;;;;;;15.60;14.05;;;;;;;17.12;41.20;96207.44;4948720;28;20517;-77
2021/10/09 12:21:29;;;;;;;17.83;14.77;;;;;;;17.06;41.43;96213.31;4951719;28;20046;-69
2021/10/09 12:23:55;;;;;;;17.48;14.35;;;;;;;16.05;42.64;96209.94;4960437;28;20692;-69
2021/10/09 12:26:23;;;;;;;17.42;14.02;;;;;;;16.45;41.83;96191.81;4952403;28;20066;-69
2021/10/09 12:29:06;;;;;;;17.67;14.15;;;;;;;17.17;40.90;96216.47;4949072;28;20035;-68
2021/10/09 12:31:36;;;;;;;19.67;15.32;;;;;;;17.20;40.94;96213.13;4949764;28;20039;-67
2021/10/09 12:34:02;;;;;;;15.45;12.40;;;;;;;17.61;40.78;96197.19;4949261;28;20054;-66
2021/10/09 12:36:35;;;;;;;19.60;13.77;;;;;;;16.97;41.44;96196.41;4951966;28;20121;-72
2021/10/09 12:39:24;;;;;;;25.92;13.95;;;;;;;17.72;40.46;96199.53;4954791;28;20126;-75
2021/10/09 12:41:52;;;;;;;16.00;14.15;;;;;;;17.66;40.52;96209.69;4926439;28;20031;-71
2021/10/09 12:44:18;;;;;;;18.15;13.48;;;;;;;17.22;40.47;96200.94;4950831;28;20429;-70
2021/10/09 12:46:44;;;;;;;18.70;12.38;;;;;;;17.57;40.32;96220.47;4966957;28;20046;-65
2021/10/09 12:49:10;;;;;;;15.18;12.93;;;;;;;17.66;40.25;96199.72;4967860;28;20049;-65
2021/10/09 12:51:35;;;;;;;15.07;13.30;;;;;;;18.02;39.59;96209.22;4959466;28;20050;-69
2021/10/09 12:54:07;;;;;;;15.55;13.98;;;;;;;17.83;39.90;96198.06;4949036;28;20043;-65
2021/10/09 12:56:34;;;;;;;18.23;14.32;;;;;;;17.58;40.60;96203.22;4941444;28;20122;-66
2021/10/09 12:58:59;;;;;;;18.38;12.93;;;;;;;16.82;41.58;96203.84;4930126;29;20451;-66
2021/10/09 13:01:25;;;;;;;16.30;12.50;;;;;;;17.24;41.18;96189.88;4929011;28;20122;-65
2021/10/09 13:03:51;;;;;;;17.95;12.43;;;;;;;17.55;40.19;96181.53;4929729;28;20036;-66
2021/10/09 13:06:16;;;;;;;20.80;10.85;;;;;;;17.78;39.77;96190.97;4929047;28;20052;-66
2021/10/09 13:08:41;;;;;;;15.35;11.07;;;;;;;18.05;39.15;96195.09;4935795;28;20059;-66
2021/10/09 13:11:07;;;;;;;17.10;11.70;;;;;;;18.35;38.80;96185.09;4931848;29;20106;-66
2021/10/09 13:13:32;;;;;;;11.32;10.23;;;;;;;18.76;38.02;96188.13;4945495;28;20046;-66
2021/10/09 13:15:57;;;;;;;14.38;9.00;;;;;;;18.78;37.89;96178.56;4949088;28;20039;-66
2021/10/09 13:18:23;;;;;;;15.05;9.13;;;;;;;19.01;35.90;96173.63;4948835;28;20062;-66
2021/10/09 13:20:48;;;;;;;10.50;8.10;;;;;;;19.13;35.96;96179.03;4948061;28;20035;-66
2021/10/09 13:23:13;;;;;;;11.35;8.73;;;;;;;18.76;36.24;96178.13;4959175;28;20546;-66
2021/10/09 13:25:40;;;;;;;14.68;9.10;;;;;;;19.27;35.21;96175.25;4955689;28;20086;-66
2021/10/09 13:28:06;;;;;;;12.55;8.18;;;;;;;19.39;35.77;96173.34;4949073;28;20043;-66
2021/10/09 13:30:32;;;;;;;13.82;11.57;;;;;;;18.90;37.04;96185.94;4950867;28;20074;-65
2021/10/09 13:32:58;;;;;;;13.68;10.38;;;;;;;18.79;37.58;96172.09;4952427;28;20027;-66
2021/10/09 13:35:23;;;;;;;15.70;11.10;;;;;;;18.38;38.61;96164.78;4969134;28;20539;-66